sensor_id;sensor_type;location;lat;lon;timestamp;P1;durP1;ratioP1;P2;durP2;ratioP2
44486;SDS011;30191;50.908;6.962;2024-03-25T00:00:11;12.30;;;2.95;;
44486;SDS011;30191;50.908;6.962;2024-03-25T00:02:38;15.63;;;3.20;;
44486;SDS011;30191;50.908;6.962;2024-03-25T00:05:04;11.68;;;3.10;;
44486;SDS011;30191;50.908;6.962;2024-03-25T00:07:32;13.77;;;2.83;;
44486;SDS011;30191;50.908;6.962;2024-03-25T00:09:57;13.05;;;3.22;;
44486;SDS011;30191;50.908;6.962;2024-03-25T00:12:25;14.48;;;3.38;;
44486;SDS011;30191;50.908;6.962;2024-03-25T00:14:51;13.45;;;3.22;;
44486;SDS011;30191;50.908;6.962;2024-03-25T00:17:16;12.30;;;3.10;;
44486;SDS011;30191;50.908;6.962;2024-03-25T00:19:42;11.88;;;2.97;;
44486;SDS011;30191;50.908;6.962;2024-03-25T00:22:08;12.02;;;3.05;;
44486;SDS011;30191;50.908;6.962;2024-03-25T00:24:33;16.23;;;2.97;;
44486;SDS011;30191;50.908;6.962;2024-03-25T00:26:59;13.48;;;3.08;;
44486;SDS011;30191;50.908;6.962;2024-03-25T00:29:25;10.20;;;2.60;;
44486;SDS011;30191;50.908;6.962;2024-03-25T00:31:50;12.73;;;3.30;;
44486;SDS011;30191;50.908;6.962;2024-03-25T00:34:16;16.23;;;3.80;;
44486;SDS011;30191;50.908;6.962;2024-03-25T00:36:42;14.88;;;3.42;;
44486;SDS011;30191;50.908;6.962;2024-03-25T00:39:08;15.32;;;3.30;;
44486;SDS011;30191;50.908;6.962;2024-03-25T00:41:35;17.17;;;3.55;;
44486;SDS011;30191;50.908;6.962;2024-03-25T00:44:01;12.57;;;3.53;;
44486;SDS011;30191;50.908;6.962;2024-03-25T00:46:26;10.68;;;3.70;;
44486;SDS011;30191;50.908;6.962;2024-03-25T00:48:52;14.55;;;3.50;;
44486;SDS011;30191;50.908;6.962;2024-03-25T00:51:18;17.38;;;3.88;;
44486;SDS011;30191;50.908;6.962;2024-03-25T00:53:44;13.45;;;3.55;;
44486;SDS011;30191;50.908;6.962;2024-03-25T00:56:10;16.70;;;3.55;;
44486;SDS011;30191;50.908;6.962;2024-03-25T00:58:35;13.82;;;3.55;;
44486;SDS011;30191;50.908;6.962;2024-03-25T01:01:01;13.73;;;3.78;;
44486;SDS011;30191;50.908;6.962;2024-03-25T01:03:26;15.50;;;3.72;;
44486;SDS011;30191;50.908;6.962;2024-03-25T01:05:52;13.10;;;4.13;;
44486;SDS011;30191;50.908;6.962;2024-03-25T01:08:18;14.18;;;3.45;;
44486;SDS011;30191;50.908;6.962;2024-03-25T01:10:44;14.30;;;4.43;;
44486;SDS011;30191;50.908;6.962;2024-03-25T01:13:10;25.10;;;4.32;;
44486;SDS011;30191;50.908;6.962;2024-03-25T01:15:36;16.00;;;3.83;;
44486;SDS011;30191;50.908;6.962;2024-03-25T01:18:01;19.17;;;4.20;;
44486;SDS011;30191;50.908;6.962;2024-03-25T01:20:28;21.85;;;4.30;;
44486;SDS011;30191;50.908;6.962;2024-03-25T01:22:53;22.05;;;4.32;;
44486;SDS011;30191;50.908;6.962;2024-03-25T01:25:19;16.75;;;3.60;;
44486;SDS011;30191;50.908;6.962;2024-03-25T01:27:45;17.25;;;3.40;;
44486;SDS011;30191;50.908;6.962;2024-03-25T01:30:11;14.88;;;3.70;;
44486;SDS011;30191;50.908;6.962;2024-03-25T01:32:37;24.58;;;4.07;;
44486;SDS011;30191;50.908;6.962;2024-03-25T01:35:03;17.00;;;3.78;;
44486;SDS011;30191;50.908;6.962;2024-03-25T01:37:28;17.20;;;4.03;;
44486;SDS011;30191;50.908;6.962;2024-03-25T01:39:54;15.35;;;3.70;;
44486;SDS011;30191;50.908;6.962;2024-03-25T01:42:20;16.98;;;3.47;;
44486;SDS011;30191;50.908;6.962;2024-03-25T01:44:45;21.50;;;4.35;;
44486;SDS011;30191;50.908;6.962;2024-03-25T01:47:13;16.35;;;3.55;;
44486;SDS011;30191;50.908;6.962;2024-03-25T01:49:39;14.43;;;3.38;;
44486;SDS011;30191;50.908;6.962;2024-03-25T01:52:05;14.40;;;3.10;;
44486;SDS011;30191;50.908;6.962;2024-03-25T01:54:31;20.85;;;3.85;;
44486;SDS011;30191;50.908;6.962;2024-03-25T01:56:57;18.20;;;3.42;;
44486;SDS011;30191;50.908;6.962;2024-03-25T01:59:23;17.73;;;3.75;;
44486;SDS011;30191;50.908;6.962;2024-03-25T02:01:51;17.67;;;3.65;;
44486;SDS011;30191;50.908;6.962;2024-03-25T02:04:18;14.00;;;2.88;;
44486;SDS011;30191;50.908;6.962;2024-03-25T02:06:44;17.30;;;3.38;;
44486;SDS011;30191;50.908;6.962;2024-03-25T02:09:10;16.98;;;3.20;;
44486;SDS011;30191;50.908;6.962;2024-03-25T02:11:38;17.33;;;3.53;;
44486;SDS011;30191;50.908;6.962;2024-03-25T02:14:04;17.50;;;3.65;;
44486;SDS011;30191;50.908;6.962;2024-03-25T02:16:30;16.23;;;3.10;;
44486;SDS011;30191;50.908;6.962;2024-03-25T02:18:56;22.92;;;4.35;;
44486;SDS011;30191;50.908;6.962;2024-03-25T02:21:21;18.98;;;3.58;;
44486;SDS011;30191;50.908;6.962;2024-03-25T02:23:47;17.27;;;3.63;;
44486;SDS011;30191;50.908;6.962;2024-03-25T02:26:15;22.35;;;4.05;;
44486;SDS011;30191;50.908;6.962;2024-03-25T02:28:41;20.60;;;4.05;;
44486;SDS011;30191;50.908;6.962;2024-03-25T02:31:07;19.25;;;4.28;;
44486;SDS011;30191;50.908;6.962;2024-03-25T02:33:32;17.60;;;3.58;;
44486;SDS011;30191;50.908;6.962;2024-03-25T02:35:58;21.33;;;3.90;;
44486;SDS011;30191;50.908;6.962;2024-03-25T02:38:23;24.35;;;3.95;;
44486;SDS011;30191;50.908;6.962;2024-03-25T02:40:49;17.67;;;3.13;;
44486;SDS011;30191;50.908;6.962;2024-03-25T02:43:15;22.05;;;3.83;;
44486;SDS011;30191;50.908;6.962;2024-03-25T02:45:46;17.40;;;3.50;;
44486;SDS011;30191;50.908;6.962;2024-03-25T02:48:11;27.10;;;4.15;;
44486;SDS011;30191;50.908;6.962;2024-03-25T02:50:37;19.55;;;3.55;;
44486;SDS011;30191;50.908;6.962;2024-03-25T02:53:03;16.33;;;3.47;;
44486;SDS011;30191;50.908;6.962;2024-03-25T02:55:28;15.57;;;3.75;;
44486;SDS011;30191;50.908;6.962;2024-03-25T02:57:54;17.95;;;3.45;;
44486;SDS011;30191;50.908;6.962;2024-03-25T03:00:20;23.98;;;3.70;;
44486;SDS011;30191;50.908;6.962;2024-03-25T03:02:45;19.80;;;3.60;;
44486;SDS011;30191;50.908;6.962;2024-03-25T03:05:11;17.98;;;3.80;;
44486;SDS011;30191;50.908;6.962;2024-03-25T03:07:36;15.57;;;3.78;;
44486;SDS011;30191;50.908;6.962;2024-03-25T03:10:02;12.50;;;3.53;;
44486;SDS011;30191;50.908;6.962;2024-03-25T03:12:28;19.85;;;3.72;;
44486;SDS011;30191;50.908;6.962;2024-03-25T03:14:53;19.55;;;3.85;;
44486;SDS011;30191;50.908;6.962;2024-03-25T03:17:19;15.57;;;3.42;;
44486;SDS011;30191;50.908;6.962;2024-03-25T03:19:45;15.18;;;3.42;;
44486;SDS011;30191;50.908;6.962;2024-03-25T03:22:10;18.83;;;3.47;;
44486;SDS011;30191;50.908;6.962;2024-03-25T03:24:36;11.55;;;3.05;;
44486;SDS011;30191;50.908;6.962;2024-03-25T03:27:02;17.08;;;3.65;;
44486;SDS011;30191;50.908;6.962;2024-03-25T03:29:28;22.27;;;4.13;;
44486;SDS011;30191;50.908;6.962;2024-03-25T03:31:54;22.00;;;4.40;;
44486;SDS011;30191;50.908;6.962;2024-03-25T03:34:20;18.20;;;3.47;;
44486;SDS011;30191;50.908;6.962;2024-03-25T03:36:46;15.40;;;3.25;;
44486;SDS011;30191;50.908;6.962;2024-03-25T03:39:11;21.00;;;3.72;;
44486;SDS011;30191;50.908;6.962;2024-03-25T03:41:38;19.25;;;3.70;;
44486;SDS011;30191;50.908;6.962;2024-03-25T03:44:04;19.25;;;3.63;;
44486;SDS011;30191;50.908;6.962;2024-03-25T03:46:30;17.23;;;3.25;;
44486;SDS011;30191;50.908;6.962;2024-03-25T03:48:55;18.50;;;3.55;;
44486;SDS011;30191;50.908;6.962;2024-03-25T03:51:21;13.18;;;3.33;;
44486;SDS011;30191;50.908;6.962;2024-03-25T03:53:46;16.30;;;3.63;;
44486;SDS011;30191;50.908;6.962;2024-03-25T03:56:12;17.35;;;3.90;;
44486;SDS011;30191;50.908;6.962;2024-03-25T03:58:38;20.13;;;4.00;;
44486;SDS011;30191;50.908;6.962;2024-03-25T04:01:03;18.85;;;3.15;;
44486;SDS011;30191;50.908;6.962;2024-03-25T04:03:29;17.17;;;3.25;;
44486;SDS011;30191;50.908;6.962;2024-03-25T04:05:55;20.48;;;3.83;;
44486;SDS011;30191;50.908;6.962;2024-03-25T04:08:21;15.65;;;3.67;;
44486;SDS011;30191;50.908;6.962;2024-03-25T04:10:47;17.60;;;3.15;;
44486;SDS011;30191;50.908;6.962;2024-03-25T04:13:12;22.10;;;3.80;;
44486;SDS011;30191;50.908;6.962;2024-03-25T04:15:39;16.80;;;3.40;;
44486;SDS011;30191;50.908;6.962;2024-03-25T04:18:07;16.98;;;3.75;;
44486;SDS011;30191;50.908;6.962;2024-03-25T04:20:40;22.13;;;3.88;;
44486;SDS011;30191;50.908;6.962;2024-03-25T04:23:06;17.80;;;3.53;;
44486;SDS011;30191;50.908;6.962;2024-03-25T04:25:34;16.85;;;3.70;;
44486;SDS011;30191;50.908;6.962;2024-03-25T04:28:02;16.55;;;3.42;;
44486;SDS011;30191;50.908;6.962;2024-03-25T04:30:29;14.15;;;3.25;;
44486;SDS011;30191;50.908;6.962;2024-03-25T04:32:54;12.07;;;3.28;;
44486;SDS011;30191;50.908;6.962;2024-03-25T04:35:20;13.20;;;3.10;;
44486;SDS011;30191;50.908;6.962;2024-03-25T04:37:45;18.38;;;4.03;;
44486;SDS011;30191;50.908;6.962;2024-03-25T04:40:11;18.85;;;3.55;;
44486;SDS011;30191;50.908;6.962;2024-03-25T04:42:39;19.38;;;4.03;;
44486;SDS011;30191;50.908;6.962;2024-03-25T04:45:05;19.52;;;3.38;;
44486;SDS011;30191;50.908;6.962;2024-03-25T04:47:31;17.90;;;4.20;;
44486;SDS011;30191;50.908;6.962;2024-03-25T04:49:57;18.35;;;3.83;;
44486;SDS011;30191;50.908;6.962;2024-03-25T04:52:23;17.50;;;3.92;;
44486;SDS011;30191;50.908;6.962;2024-03-25T04:54:50;14.98;;;3.50;;
44486;SDS011;30191;50.908;6.962;2024-03-25T04:57:16;14.20;;;3.25;;
44486;SDS011;30191;50.908;6.962;2024-03-25T04:59:42;14.38;;;3.75;;
44486;SDS011;30191;50.908;6.962;2024-03-25T05:02:07;20.15;;;3.72;;
44486;SDS011;30191;50.908;6.962;2024-03-25T05:04:33;15.18;;;3.33;;
44486;SDS011;30191;50.908;6.962;2024-03-25T05:06:59;26.25;;;4.38;;
44486;SDS011;30191;50.908;6.962;2024-03-25T05:09:24;15.75;;;4.00;;
44486;SDS011;30191;50.908;6.962;2024-03-25T05:11:50;14.88;;;3.42;;
44486;SDS011;30191;50.908;6.962;2024-03-25T05:14:15;18.73;;;3.53;;
44486;SDS011;30191;50.908;6.962;2024-03-25T05:16:41;18.10;;;3.60;;
44486;SDS011;30191;50.908;6.962;2024-03-25T05:19:07;16.92;;;3.95;;
44486;SDS011;30191;50.908;6.962;2024-03-25T05:21:32;13.73;;;3.45;;
44486;SDS011;30191;50.908;6.962;2024-03-25T05:23:58;15.80;;;3.30;;
44486;SDS011;30191;50.908;6.962;2024-03-25T05:26:24;13.77;;;3.88;;
44486;SDS011;30191;50.908;6.962;2024-03-25T05:28:53;16.85;;;3.83;;
44486;SDS011;30191;50.908;6.962;2024-03-25T05:31:19;14.45;;;3.72;;
44486;SDS011;30191;50.908;6.962;2024-03-25T05:33:45;17.30;;;4.10;;
44486;SDS011;30191;50.908;6.962;2024-03-25T05:36:11;13.52;;;3.50;;
44486;SDS011;30191;50.908;6.962;2024-03-25T05:38:36;16.40;;;4.40;;
44486;SDS011;30191;50.908;6.962;2024-03-25T05:41:03;12.93;;;4.00;;
44486;SDS011;30191;50.908;6.962;2024-03-25T05:43:29;12.57;;;4.10;;
44486;SDS011;30191;50.908;6.962;2024-03-25T05:45:54;17.40;;;3.80;;
44486;SDS011;30191;50.908;6.962;2024-03-25T05:48:21;13.50;;;3.67;;
44486;SDS011;30191;50.908;6.962;2024-03-25T05:53:28;13.43;;;4.00;;
44486;SDS011;30191;50.908;6.962;2024-03-25T05:55:54;9.77;;;3.63;;
44486;SDS011;30191;50.908;6.962;2024-03-25T05:58:20;13.95;;;3.83;;
44486;SDS011;30191;50.908;6.962;2024-03-25T06:00:46;17.35;;;4.10;;
44486;SDS011;30191;50.908;6.962;2024-03-25T06:03:13;12.45;;;4.00;;
44486;SDS011;30191;50.908;6.962;2024-03-25T06:05:38;16.50;;;4.13;;
44486;SDS011;30191;50.908;6.962;2024-03-25T06:08:05;17.23;;;4.40;;
44486;SDS011;30191;50.908;6.962;2024-03-25T06:10:34;13.00;;;4.38;;
44486;SDS011;30191;50.908;6.962;2024-03-25T06:13:01;15.40;;;3.90;;
44486;SDS011;30191;50.908;6.962;2024-03-25T06:15:27;11.55;;;4.72;;
44486;SDS011;30191;50.908;6.962;2024-03-25T06:17:52;14.82;;;4.80;;
44486;SDS011;30191;50.908;6.962;2024-03-25T06:20:19;11.55;;;4.50;;
44486;SDS011;30191;50.908;6.962;2024-03-25T06:22:44;13.30;;;3.90;;
44486;SDS011;30191;50.908;6.962;2024-03-25T06:25:10;14.30;;;4.47;;
44486;SDS011;30191;50.908;6.962;2024-03-25T06:27:35;14.00;;;4.32;;
44486;SDS011;30191;50.908;6.962;2024-03-25T06:30:01;14.93;;;4.45;;
44486;SDS011;30191;50.908;6.962;2024-03-25T06:32:46;16.60;;;4.07;;
44486;SDS011;30191;50.908;6.962;2024-03-25T06:35:30;8.95;;;3.60;;
44486;SDS011;30191;50.908;6.962;2024-03-25T06:37:56;13.15;;;3.92;;
44486;SDS011;30191;50.908;6.962;2024-03-25T06:40:22;19.70;;;3.60;;
44486;SDS011;30191;50.908;6.962;2024-03-25T06:42:47;11.75;;;3.88;;
44486;SDS011;30191;50.908;6.962;2024-03-25T06:45:13;11.40;;;3.15;;
44486;SDS011;30191;50.908;6.962;2024-03-25T06:47:41;12.00;;;3.22;;
44486;SDS011;30191;50.908;6.962;2024-03-25T06:50:06;14.93;;;3.20;;
44486;SDS011;30191;50.908;6.962;2024-03-25T06:52:32;12.75;;;3.25;;
44486;SDS011;30191;50.908;6.962;2024-03-25T06:54:58;14.55;;;3.55;;
44486;SDS011;30191;50.908;6.962;2024-03-25T06:57:24;12.68;;;3.70;;
44486;SDS011;30191;50.908;6.962;2024-03-25T06:59:49;14.48;;;2.90;;
44486;SDS011;30191;50.908;6.962;2024-03-25T07:02:15;11.93;;;2.90;;
44486;SDS011;30191;50.908;6.962;2024-03-25T07:04:40;12.50;;;2.95;;
44486;SDS011;30191;50.908;6.962;2024-03-25T07:07:06;10.55;;;2.92;;
44486;SDS011;30191;50.908;6.962;2024-03-25T07:09:33;14.95;;;3.70;;
44486;SDS011;30191;50.908;6.962;2024-03-25T07:11:59;15.40;;;3.88;;
44486;SDS011;30191;50.908;6.962;2024-03-25T07:14:24;12.07;;;3.40;;
44486;SDS011;30191;50.908;6.962;2024-03-25T07:16:50;14.65;;;2.97;;
44486;SDS011;30191;50.908;6.962;2024-03-25T07:19:16;12.38;;;2.60;;
44486;SDS011;30191;50.908;6.962;2024-03-25T07:21:41;13.93;;;3.28;;
44486;SDS011;30191;50.908;6.962;2024-03-25T07:24:07;10.05;;;2.80;;
44486;SDS011;30191;50.908;6.962;2024-03-25T07:26:32;12.32;;;3.03;;
44486;SDS011;30191;50.908;6.962;2024-03-25T07:28:58;16.58;;;2.97;;
44486;SDS011;30191;50.908;6.962;2024-03-25T07:31:24;8.55;;;2.75;;
44486;SDS011;30191;50.908;6.962;2024-03-25T07:33:50;14.88;;;3.45;;
44486;SDS011;30191;50.908;6.962;2024-03-25T07:36:16;15.23;;;3.35;;
44486;SDS011;30191;50.908;6.962;2024-03-25T07:38:43;14.40;;;3.08;;
44486;SDS011;30191;50.908;6.962;2024-03-25T07:41:09;12.68;;;3.78;;
44486;SDS011;30191;50.908;6.962;2024-03-25T07:43:35;11.75;;;3.20;;
44486;SDS011;30191;50.908;6.962;2024-03-25T07:46:00;14.02;;;3.50;;
44486;SDS011;30191;50.908;6.962;2024-03-25T07:48:26;18.73;;;3.90;;
44486;SDS011;30191;50.908;6.962;2024-03-25T07:50:51;14.02;;;2.88;;
44486;SDS011;30191;50.908;6.962;2024-03-25T07:53:17;14.60;;;3.75;;
44486;SDS011;30191;50.908;6.962;2024-03-25T07:55:43;18.60;;;3.97;;
44486;SDS011;30191;50.908;6.962;2024-03-25T07:58:09;12.68;;;3.65;;
44486;SDS011;30191;50.908;6.962;2024-03-25T08:00:34;14.75;;;3.03;;
44486;SDS011;30191;50.908;6.962;2024-03-25T08:03:00;17.92;;;3.42;;
44486;SDS011;30191;50.908;6.962;2024-03-25T08:05:26;17.55;;;3.55;;
44486;SDS011;30191;50.908;6.962;2024-03-25T08:07:54;12.90;;;3.45;;
44486;SDS011;30191;50.908;6.962;2024-03-25T08:10:20;17.75;;;3.75;;
44486;SDS011;30191;50.908;6.962;2024-03-25T08:12:45;12.85;;;3.30;;
44486;SDS011;30191;50.908;6.962;2024-03-25T08:15:11;19.33;;;4.05;;
44486;SDS011;30191;50.908;6.962;2024-03-25T08:17:38;13.07;;;3.58;;
44486;SDS011;30191;50.908;6.962;2024-03-25T08:20:04;16.33;;;3.70;;
44486;SDS011;30191;50.908;6.962;2024-03-25T08:22:30;14.35;;;3.80;;
44486;SDS011;30191;50.908;6.962;2024-03-25T08:24:56;13.15;;;3.70;;
44486;SDS011;30191;50.908;6.962;2024-03-25T08:27:21;14.18;;;3.92;;
44486;SDS011;30191;50.908;6.962;2024-03-25T08:29:47;13.80;;;3.60;;
44486;SDS011;30191;50.908;6.962;2024-03-25T08:32:16;13.52;;;3.90;;
44486;SDS011;30191;50.908;6.962;2024-03-25T08:34:41;15.38;;;3.67;;
44486;SDS011;30191;50.908;6.962;2024-03-25T08:37:07;13.23;;;3.38;;
44486;SDS011;30191;50.908;6.962;2024-03-25T08:39:33;16.20;;;3.53;;
44486;SDS011;30191;50.908;6.962;2024-03-25T08:41:58;13.55;;;3.13;;
44486;SDS011;30191;50.908;6.962;2024-03-25T08:44:24;13.30;;;2.67;;
44486;SDS011;30191;50.908;6.962;2024-03-25T08:46:50;20.58;;;3.00;;
44486;SDS011;30191;50.908;6.962;2024-03-25T08:49:16;11.50;;;2.47;;
44486;SDS011;30191;50.908;6.962;2024-03-25T08:51:41;15.68;;;3.10;;
44486;SDS011;30191;50.908;6.962;2024-03-25T08:54:07;15.23;;;2.38;;
44486;SDS011;30191;50.908;6.962;2024-03-25T08:56:33;10.73;;;2.60;;
44486;SDS011;30191;50.908;6.962;2024-03-25T08:58:58;13.88;;;2.50;;
44486;SDS011;30191;50.908;6.962;2024-03-25T09:01:24;10.45;;;2.65;;
44486;SDS011;30191;50.908;6.962;2024-03-25T09:03:51;13.40;;;2.90;;
44486;SDS011;30191;50.908;6.962;2024-03-25T09:06:16;15.07;;;2.75;;
44486;SDS011;30191;50.908;6.962;2024-03-25T09:08:42;15.85;;;2.95;;
44486;SDS011;30191;50.908;6.962;2024-03-25T09:11:26;15.07;;;2.80;;
44486;SDS011;30191;50.908;6.962;2024-03-25T09:13:52;13.57;;;2.72;;
44486;SDS011;30191;50.908;6.962;2024-03-25T09:16:18;15.63;;;2.60;;
44486;SDS011;30191;50.908;6.962;2024-03-25T09:18:44;15.50;;;2.95;;
44486;SDS011;30191;50.908;6.962;2024-03-25T09:21:10;14.23;;;2.88;;
44486;SDS011;30191;50.908;6.962;2024-03-25T09:23:36;18.30;;;3.15;;
44486;SDS011;30191;50.908;6.962;2024-03-25T09:26:02;12.40;;;2.92;;
44486;SDS011;30191;50.908;6.962;2024-03-25T09:28:27;11.80;;;3.30;;
44486;SDS011;30191;50.908;6.962;2024-03-25T09:30:53;14.63;;;3.25;;
44486;SDS011;30191;50.908;6.962;2024-03-25T09:33:19;17.92;;;4.10;;
44486;SDS011;30191;50.908;6.962;2024-03-25T09:35:44;14.45;;;3.03;;
44486;SDS011;30191;50.908;6.962;2024-03-25T09:38:10;10.32;;;3.63;;
44486;SDS011;30191;50.908;6.962;2024-03-25T09:40:35;11.07;;;2.55;;
44486;SDS011;30191;50.908;6.962;2024-03-25T09:43:06;11.55;;;2.80;;
44486;SDS011;30191;50.908;6.962;2024-03-25T09:45:37;11.63;;;2.53;;
44486;SDS011;30191;50.908;6.962;2024-03-25T09:48:05;11.02;;;2.70;;
44486;SDS011;30191;50.908;6.962;2024-03-25T09:50:32;16.42;;;2.83;;
44486;SDS011;30191;50.908;6.962;2024-03-25T09:52:58;11.30;;;2.63;;
44486;SDS011;30191;50.908;6.962;2024-03-25T09:55:23;9.82;;;2.10;;
44486;SDS011;30191;50.908;6.962;2024-03-25T09:57:49;15.63;;;2.58;;
44486;SDS011;30191;50.908;6.962;2024-03-25T10:00:16;13.20;;;2.67;;
44486;SDS011;30191;50.908;6.962;2024-03-25T10:02:43;11.75;;;2.90;;
44486;SDS011;30191;50.908;6.962;2024-03-25T10:05:10;15.05;;;3.08;;
44486;SDS011;30191;50.908;6.962;2024-03-25T10:07:35;9.50;;;2.15;;
44486;SDS011;30191;50.908;6.962;2024-03-25T10:10:04;7.88;;;2.30;;
44486;SDS011;30191;50.908;6.962;2024-03-25T10:12:31;11.32;;;2.60;;
44486;SDS011;30191;50.908;6.962;2024-03-25T10:14:57;10.85;;;2.38;;
44486;SDS011;30191;50.908;6.962;2024-03-25T10:17:23;11.73;;;2.63;;
44486;SDS011;30191;50.908;6.962;2024-03-25T10:19:49;7.88;;;2.08;;
44486;SDS011;30191;50.908;6.962;2024-03-25T10:22:15;6.90;;;1.80;;
44486;SDS011;30191;50.908;6.962;2024-03-25T10:24:41;10.93;;;2.28;;
44486;SDS011;30191;50.908;6.962;2024-03-25T10:27:17;12.45;;;2.50;;
44486;SDS011;30191;50.908;6.962;2024-03-25T10:29:47;15.50;;;3.13;;
44486;SDS011;30191;50.908;6.962;2024-03-25T10:32:13;11.55;;;2.33;;
44486;SDS011;30191;50.908;6.962;2024-03-25T10:34:40;9.88;;;2.65;;
44486;SDS011;30191;50.908;6.962;2024-03-25T10:37:08;11.55;;;2.47;;
44486;SDS011;30191;50.908;6.962;2024-03-25T10:39:35;13.27;;;2.72;;
44486;SDS011;30191;50.908;6.962;2024-03-25T10:42:04;14.82;;;2.92;;
44486;SDS011;30191;50.908;6.962;2024-03-25T10:44:31;12.65;;;2.40;;
44486;SDS011;30191;50.908;6.962;2024-03-25T10:47:02;12.38;;;2.75;;
44486;SDS011;30191;50.908;6.962;2024-03-25T10:49:34;11.18;;;2.28;;
44486;SDS011;30191;50.908;6.962;2024-03-25T10:52:26;11.18;;;2.17;;
44486;SDS011;30191;50.908;6.962;2024-03-25T10:54:52;5.68;;;1.80;;
44486;SDS011;30191;50.908;6.962;2024-03-25T10:57:19;7.80;;;1.77;;
44486;SDS011;30191;50.908;6.962;2024-03-25T10:59:46;8.82;;;1.92;;
44486;SDS011;30191;50.908;6.962;2024-03-25T11:02:12;12.40;;;1.60;;
44486;SDS011;30191;50.908;6.962;2024-03-25T11:04:39;6.07;;;1.83;;
44486;SDS011;30191;50.908;6.962;2024-03-25T11:07:14;8.68;;;1.85;;
44486;SDS011;30191;50.908;6.962;2024-03-25T11:09:40;8.52;;;1.75;;
44486;SDS011;30191;50.908;6.962;2024-03-25T11:12:10;8.55;;;2.00;;
44486;SDS011;30191;50.908;6.962;2024-03-25T11:14:37;7.00;;;1.73;;
44486;SDS011;30191;50.908;6.962;2024-03-25T11:17:14;5.82;;;1.75;;
44486;SDS011;30191;50.908;6.962;2024-03-25T11:19:43;9.90;;;2.20;;
44486;SDS011;30191;50.908;6.962;2024-03-25T11:22:10;9.40;;;1.63;;
44486;SDS011;30191;50.908;6.962;2024-03-25T11:24:36;7.80;;;1.63;;
44486;SDS011;30191;50.908;6.962;2024-03-25T11:27:03;7.28;;;1.83;;
44486;SDS011;30191;50.908;6.962;2024-03-25T11:29:32;9.60;;;1.70;;
44486;SDS011;30191;50.908;6.962;2024-03-25T11:32:03;6.53;;;1.88;;
44486;SDS011;30191;50.908;6.962;2024-03-25T11:34:29;12.00;;;2.20;;
44486;SDS011;30191;50.908;6.962;2024-03-25T11:36:55;8.98;;;1.65;;
44486;SDS011;30191;50.908;6.962;2024-03-25T11:39:22;5.50;;;2.30;;
44486;SDS011;30191;50.908;6.962;2024-03-25T11:41:49;9.90;;;2.05;;
44486;SDS011;30191;50.908;6.962;2024-03-25T11:44:15;6.75;;;1.90;;
44486;SDS011;30191;50.908;6.962;2024-03-25T11:46:43;7.80;;;2.05;;
44486;SDS011;30191;50.908;6.962;2024-03-25T11:49:12;10.07;;;1.75;;
44486;SDS011;30191;50.908;6.962;2024-03-25T11:51:40;7.97;;;1.60;;
44486;SDS011;30191;50.908;6.962;2024-03-25T11:54:06;8.73;;;2.33;;
44486;SDS011;30191;50.908;6.962;2024-03-25T11:56:35;7.32;;;2.38;;
44486;SDS011;30191;50.908;6.962;2024-03-25T11:59:02;8.85;;;1.83;;
44486;SDS011;30191;50.908;6.962;2024-03-25T12:01:29;10.25;;;1.88;;
44486;SDS011;30191;50.908;6.962;2024-03-25T12:03:55;7.63;;;1.90;;
44486;SDS011;30191;50.908;6.962;2024-03-25T12:06:21;8.77;;;1.73;;
44486;SDS011;30191;50.908;6.962;2024-03-25T12:08:47;8.40;;;1.73;;
44486;SDS011;30191;50.908;6.962;2024-03-25T12:11:31;5.75;;;1.65;;
44486;SDS011;30191;50.908;6.962;2024-03-25T12:13:57;6.78;;;1.90;;
44486;SDS011;30191;50.908;6.962;2024-03-25T12:16:24;5.90;;;1.65;;
44486;SDS011;30191;50.908;6.962;2024-03-25T12:18:51;5.22;;;1.60;;
44486;SDS011;30191;50.908;6.962;2024-03-25T12:21:19;5.93;;;1.80;;
44486;SDS011;30191;50.908;6.962;2024-03-25T12:23:46;7.43;;;1.77;;
44486;SDS011;30191;50.908;6.962;2024-03-25T12:26:12;9.32;;;1.85;;
44486;SDS011;30191;50.908;6.962;2024-03-25T12:28:41;7.28;;;1.73;;
44486;SDS011;30191;50.908;6.962;2024-03-25T12:31:07;7.10;;;1.88;;
44486;SDS011;30191;50.908;6.962;2024-03-25T12:33:43;8.13;;;2.13;;
44486;SDS011;30191;50.908;6.962;2024-03-25T12:36:11;7.07;;;1.75;;
44486;SDS011;30191;50.908;6.962;2024-03-25T12:38:37;5.15;;;1.42;;
44486;SDS011;30191;50.908;6.962;2024-03-25T12:41:03;9.98;;;1.55;;
44486;SDS011;30191;50.908;6.962;2024-03-25T12:43:34;7.93;;;1.98;;
44486;SDS011;30191;50.908;6.962;2024-03-25T12:46:01;6.90;;;1.52;;
44486;SDS011;30191;50.908;6.962;2024-03-25T12:48:30;7.35;;;1.65;;
44486;SDS011;30191;50.908;6.962;2024-03-25T12:50:56;6.75;;;1.90;;
44486;SDS011;30191;50.908;6.962;2024-03-25T12:53:21;5.47;;;1.45;;
44486;SDS011;30191;50.908;6.962;2024-03-25T12:55:47;8.55;;;1.65;;
44486;SDS011;30191;50.908;6.962;2024-03-25T12:58:13;7.47;;;1.90;;
44486;SDS011;30191;50.908;6.962;2024-03-25T13:00:38;8.35;;;1.70;;
44486;SDS011;30191;50.908;6.962;2024-03-25T13:03:05;4.10;;;1.40;;
44486;SDS011;30191;50.908;6.962;2024-03-25T13:05:33;5.97;;;2.63;;
44486;SDS011;30191;50.908;6.962;2024-03-25T13:07:59;5.55;;;1.52;;
44486;SDS011;30191;50.908;6.962;2024-03-25T13:10:26;5.20;;;1.60;;
44486;SDS011;30191;50.908;6.962;2024-03-25T13:12:52;6.07;;;1.77;;
44486;SDS011;30191;50.908;6.962;2024-03-25T13:15:18;4.35;;;1.40;;
44486;SDS011;30191;50.908;6.962;2024-03-25T13:17:43;7.18;;;1.50;;
44486;SDS011;30191;50.908;6.962;2024-03-25T13:20:09;5.65;;;1.67;;
44486;SDS011;30191;50.908;6.962;2024-03-25T13:22:35;5.47;;;1.30;;
44486;SDS011;30191;50.908;6.962;2024-03-25T13:25:01;4.72;;;0.95;;
44486;SDS011;30191;50.908;6.962;2024-03-25T13:27:26;2.50;;;1.23;;
44486;SDS011;30191;50.908;6.962;2024-03-25T13:29:52;4.03;;;1.38;;
44486;SDS011;30191;50.908;6.962;2024-03-25T13:32:19;4.35;;;1.42;;
44486;SDS011;30191;50.908;6.962;2024-03-25T13:34:45;3.17;;;1.25;;
44486;SDS011;30191;50.908;6.962;2024-03-25T13:37:11;3.28;;;1.23;;
44486;SDS011;30191;50.908;6.962;2024-03-25T13:39:37;4.50;;;1.50;;
44486;SDS011;30191;50.908;6.962;2024-03-25T13:42:02;5.30;;;1.27;;
44486;SDS011;30191;50.908;6.962;2024-03-25T13:44:28;5.25;;;1.70;;
44486;SDS011;30191;50.908;6.962;2024-03-25T13:46:54;4.03;;;0.95;;
44486;SDS011;30191;50.908;6.962;2024-03-25T13:49:20;52.47;;;3.50;;
44486;SDS011;30191;50.908;6.962;2024-03-25T13:51:47;9.30;;;1.55;;
44486;SDS011;30191;50.908;6.962;2024-03-25T13:54:13;3.13;;;1.50;;
44486;SDS011;30191;50.908;6.962;2024-03-25T13:56:39;4.72;;;1.23;;
44486;SDS011;30191;50.908;6.962;2024-03-25T13:59:07;3.95;;;1.70;;
44486;SDS011;30191;50.908;6.962;2024-03-25T14:01:32;4.32;;;1.35;;
44486;SDS011;30191;50.908;6.962;2024-03-25T14:03:58;5.32;;;1.50;;
44486;SDS011;30191;50.908;6.962;2024-03-25T14:06:24;5.35;;;1.20;;
44486;SDS011;30191;50.908;6.962;2024-03-25T14:08:51;4.97;;;1.35;;
44486;SDS011;30191;50.908;6.962;2024-03-25T14:11:17;8.73;;;1.45;;
44486;SDS011;30191;50.908;6.962;2024-03-25T14:13:43;4.15;;;1.30;;
44486;SDS011;30191;50.908;6.962;2024-03-25T14:16:09;7.15;;;1.30;;
44486;SDS011;30191;50.908;6.962;2024-03-25T14:18:34;3.80;;;1.38;;
44486;SDS011;30191;50.908;6.962;2024-03-25T14:21:00;2.50;;;1.20;;
44486;SDS011;30191;50.908;6.962;2024-03-25T14:23:26;3.72;;;1.13;;
44486;SDS011;30191;50.908;6.962;2024-03-25T14:25:51;3.55;;;1.13;;
44486;SDS011;30191;50.908;6.962;2024-03-25T14:28:17;3.10;;;1.10;;
44486;SDS011;30191;50.908;6.962;2024-03-25T14:30:43;3.28;;;1.40;;
44486;SDS011;30191;50.908;6.962;2024-03-25T14:33:08;4.70;;;1.10;;
44486;SDS011;30191;50.908;6.962;2024-03-25T14:35:34;3.03;;;1.15;;